sensor_id;sensor_type;location;lat;lon;timestamp;pressure;altitude;pressure_sealevel;temperature;humidity
6216;BME280;3141;49.234;9.326;2023-01-26T00:00:34;100304.97;;;4.91;71.78
6216;BME280;3141;49.234;9.326;2023-01-26T00:01:22;100298.75;;;4.92;71.47
6216;BME280;3141;49.234;9.326;2023-01-26T00:02:04;100302.13;;;4.94;71.29
6216;BME280;3141;49.234;9.326;2023-01-26T00:02:47;100304.31;;;4.88;71.35
6216;BME280;3141;49.234;9.326;2023-01-26T00:03:31;100302.84;;;4.84;71.00
6216;BME280;3141;49.234;9.326;2023-01-26T00:04:14;100306.22;;;4.86;71.14
6216;BME280;3141;49.234;9.326;2023-01-26T00:04:56;100304.44;;;4.86;70.67
6216;BME280;3141;49.234;9.326;2023-01-26T00:05:39;100299.19;;;4.73;71.05
6216;BME280;3141;49.234;9.326;2023-01-26T00:06:22;100296.78;;;4.70;71.30
6216;BME280;3141;49.234;9.326;2023-01-26T00:07:05;100297.69;;;4.69;70.77
6216;BME280;3141;49.234;9.326;2023-01-26T00:07:47;100299.31;;;4.85;70.97
6216;BME280;3141;49.234;9.326;2023-01-26T00:08:34;100296.47;;;4.88;71.01
6216;BME280;3141;49.234;9.326;2023-01-26T00:09:16;100290.09;;;4.92;70.76
6216;BME280;3141;49.234;9.326;2023-01-26T00:09:58;100289.88;;;4.95;70.53
6216;BME280;3141;49.234;9.326;2023-01-26T00:10:41;100290.78;;;4.94;70.80
6216;BME280;3141;49.234;9.326;2023-01-26T00:11:31;100287.88;;;4.86;70.60
6216;BME280;3141;49.234;9.326;2023-01-26T00:12:13;100289.56;;;4.87;70.48
6216;BME280;3141;49.234;9.326;2023-01-26T00:12:55;100286.38;;;4.82;70.59
6216;BME280;3141;49.234;9.326;2023-01-26T00:13:38;100287.34;;;4.68;71.03
6216;BME280;3141;49.234;9.326;2023-01-26T00:14:20;100287.16;;;4.71;70.89
6216;BME280;3141;49.234;9.326;2023-01-26T00:15:03;100282.22;;;4.66;71.44
6216;BME280;3141;49.234;9.326;2023-01-26T00:15:45;100278.34;;;4.72;70.90
6216;BME280;3141;49.234;9.326;2023-01-26T00:16:28;100282.81;;;4.57;70.93
6216;BME280;3141;49.234;9.326;2023-01-26T00:17:10;100283.28;;;4.64;71.08
6216;BME280;3141;49.234;9.326;2023-01-26T00:17:52;100279.38;;;4.69;71.27
6216;BME280;3141;49.234;9.326;2023-01-26T00:18:36;100274.75;;;4.73;71.14
6216;BME280;3141;49.234;9.326;2023-01-26T00:19:18;100281.28;;;4.67;70.90
6216;BME280;3141;49.234;9.326;2023-01-26T00:20:01;100274.47;;;4.65;71.24
6216;BME280;3141;49.234;9.326;2023-01-26T00:20:43;100269.44;;;4.62;70.62
6216;BME280;3141;49.234;9.326;2023-01-26T00:21:25;100271.72;;;4.66;71.09
6216;BME280;3141;49.234;9.326;2023-01-26T00:22:07;100267.88;;;4.72;70.88
6216;BME280;3141;49.234;9.326;2023-01-26T00:22:50;100276.13;;;4.79;70.45
6216;BME280;3141;49.234;9.326;2023-01-26T00:23:33;100271.63;;;4.81;70.13
6216;BME280;3141;49.234;9.326;2023-01-26T00:24:16;100266.28;;;4.69;70.80
6216;BME280;3141;49.234;9.326;2023-01-26T00:24:58;100270.25;;;4.75;71.03
6216;BME280;3141;49.234;9.326;2023-01-26T00:25:41;100268.81;;;4.71;71.30
6216;BME280;3141;49.234;9.326;2023-01-26T00:26:24;100272.38;;;4.83;70.66
6216;BME280;3141;49.234;9.326;2023-01-26T00:27:07;100270.03;;;4.78;70.61
6216;BME280;3141;49.234;9.326;2023-01-26T00:27:49;100269.22;;;4.78;70.10
6216;BME280;3141;49.234;9.326;2023-01-26T00:28:32;100270.50;;;4.85;70.01
6216;BME280;3141;49.234;9.326;2023-01-26T00:29:14;100268.69;;;4.85;70.08
6216;BME280;3141;49.234;9.326;2023-01-26T00:29:56;100264.63;;;4.81;69.80
6216;BME280;3141;49.234;9.326;2023-01-26T00:30:39;100264.00;;;4.78;70.34
6216;BME280;3141;49.234;9.326;2023-01-26T00:31:23;100265.25;;;4.85;69.62
6216;BME280;3141;49.234;9.326;2023-01-26T00:32:06;100265.25;;;4.85;69.66
6216;BME280;3141;49.234;9.326;2023-01-26T00:32:48;100261.47;;;4.89;69.33
6216;BME280;3141;49.234;9.326;2023-01-26T00:33:31;100271.53;;;4.95;69.11
6216;BME280;3141;49.234;9.326;2023-01-26T00:34:14;100269.53;;;4.98;68.95
6216;BME280;3141;49.234;9.326;2023-01-26T00:34:56;100262.94;;;4.93;69.42
6216;BME280;3141;49.234;9.326;2023-01-26T00:35:38;100265.78;;;4.90;69.34
6216;BME280;3141;49.234;9.326;2023-01-26T00:36:25;100263.47;;;4.72;69.78
6216;BME280;3141;49.234;9.326;2023-01-26T00:37:08;100257.91;;;4.64;70.04
6216;BME280;3141;49.234;9.326;2023-01-26T00:37:50;100260.72;;;4.61;70.29
6216;BME280;3141;49.234;9.326;2023-01-26T00:38:33;100256.44;;;4.60;70.33
6216;BME280;3141;49.234;9.326;2023-01-26T00:39:15;100261.69;;;4.60;70.73
6216;BME280;3141;49.234;9.326;2023-01-26T00:39:58;100255.63;;;4.72;70.26
6216;BME280;3141;49.234;9.326;2023-01-26T00:40:40;100255.63;;;4.72;70.12
6216;BME280;3141;49.234;9.326;2023-01-26T00:41:22;100256.31;;;4.74;70.19
6216;BME280;3141;49.234;9.326;2023-01-26T00:42:23;100252.78;;;4.76;70.64
6216;BME280;3141;49.234;9.326;2023-01-26T00:43:06;100254.78;;;4.72;70.41
6216;BME280;3141;49.234;9.326;2023-01-26T00:43:48;100252.25;;;4.70;70.46
6216;BME280;3141;49.234;9.326;2023-01-26T00:44:31;100255.81;;;4.69;70.93
6216;BME280;3141;49.234;9.326;2023-01-26T00:45:13;100255.09;;;4.67;70.70
6216;BME280;3141;49.234;9.326;2023-01-26T00:45:56;100255.81;;;4.69;70.48
6216;BME280;3141;49.234;9.326;2023-01-26T00:46:38;100260.34;;;4.67;71.11
6216;BME280;3141;49.234;9.326;2023-01-26T00:47:20;100248.06;;;4.68;70.93
6216;BME280;3141;49.234;9.326;2023-01-26T00:48:03;100254.13;;;4.56;71.46
6216;BME280;3141;49.234;9.326;2023-01-26T00:48:45;100253.81;;;4.48;71.78
6216;BME280;3141;49.234;9.326;2023-01-26T00:49:28;100254.13;;;4.43;72.15
6216;BME280;3141;49.234;9.326;2023-01-26T00:50:10;100252.34;;;4.44;71.78
6216;BME280;3141;49.234;9.326;2023-01-26T00:50:52;100254.56;;;4.50;72.03
6216;BME280;3141;49.234;9.326;2023-01-26T00:51:35;100255.06;;;4.42;72.01
6216;BME280;3141;49.234;9.326;2023-01-26T00:52:17;100251.59;;;4.42;72.23
6216;BME280;3141;49.234;9.326;2023-01-26T00:52:59;100251.19;;;4.35;71.62
6216;BME280;3141;49.234;9.326;2023-01-26T00:53:42;100251.06;;;4.37;72.61
6216;BME280;3141;49.234;9.326;2023-01-26T00:54:24;100256.53;;;4.34;72.16
6216;BME280;3141;49.234;9.326;2023-01-26T00:55:07;100257.25;;;4.36;72.12
6216;BME280;3141;49.234;9.326;2023-01-26T00:55:49;100253.59;;;4.26;72.92
6216;BME280;3141;49.234;9.326;2023-01-26T00:56:31;100247.81;;;4.33;72.67
6216;BME280;3141;49.234;9.326;2023-01-26T00:57:14;100248.06;;;4.43;72.21
6216;BME280;3141;49.234;9.326;2023-01-26T00:58:00;100250.44;;;4.33;72.47
6216;BME280;3141;49.234;9.326;2023-01-26T00:58:42;100244.78;;;4.27;72.42
6216;BME280;3141;49.234;9.326;2023-01-26T00:59:26;100248.25;;;4.27;72.36
6216;BME280;3141;49.234;9.326;2023-01-26T01:00:09;100257.66;;;4.30;72.00
6216;BME280;3141;49.234;9.326;2023-01-26T01:00:54;100249.31;;;4.37;71.97
6216;BME280;3141;49.234;9.326;2023-01-26T01:01:36;100255.59;;;4.47;71.87
6216;BME280;3141;49.234;9.326;2023-01-26T01:02:19;100252.88;;;4.49;71.50
6216;BME280;3141;49.234;9.326;2023-01-26T01:03:02;100251.53;;;4.43;71.74
6216;BME280;3141;49.234;9.326;2023-01-26T01:03:44;100260.72;;;4.49;71.53
6216;BME280;3141;49.234;9.326;2023-01-26T01:04:28;100263.34;;;4.49;71.75
6216;BME280;3141;49.234;9.326;2023-01-26T01:05:11;100253.41;;;4.41;71.48
6216;BME280;3141;49.234;9.326;2023-01-26T01:05:53;100253.19;;;4.44;71.85
6216;BME280;3141;49.234;9.326;2023-01-26T01:06:35;100252.88;;;4.36;71.82
6216;BME280;3141;49.234;9.326;2023-01-26T01:07:18;100251.28;;;4.34;72.14
6216;BME280;3141;49.234;9.326;2023-01-26T01:08:01;100260.72;;;4.36;71.90
6216;BME280;3141;49.234;9.326;2023-01-26T01:08:43;100252.94;;;4.35;72.25
6216;BME280;3141;49.234;9.326;2023-01-26T01:09:25;100253.94;;;4.46;72.00
6216;BME280;3141;49.234;9.326;2023-01-26T01:10:08;100258.53;;;4.43;71.70
6216;BME280;3141;49.234;9.326;2023-01-26T01:11:01;100247.75;;;4.60;71.84
6216;BME280;3141;49.234;9.326;2023-01-26T01:11:44;100255.81;;;4.69;71.12
6216;BME280;3141;49.234;9.326;2023-01-26T01:12:27;100256.31;;;4.74;71.12
6216;BME280;3141;49.234;9.326;2023-01-26T01:13:09;100251.53;;;4.81;71.03
6216;BME280;3141;49.234;9.326;2023-01-26T01:13:51;100253.81;;;4.86;70.72
6216;BME280;3141;49.234;9.326;2023-01-26T01:14:33;100242.50;;;4.85;70.37
6216;BME280;3141;49.234;9.326;2023-01-26T01:15:16;100243.03;;;4.78;70.29
6216;BME280;3141;49.234;9.326;2023-01-26T01:15:58;100242.41;;;4.74;70.50
6216;BME280;3141;49.234;9.326;2023-01-26T01:16:41;100241.34;;;4.77;70.30
6216;BME280;3141;49.234;9.326;2023-01-26T01:17:24;100238.22;;;4.71;70.65
6216;BME280;3141;49.234;9.326;2023-01-26T01:18:06;100227.84;;;4.70;70.39
6216;BME280;3141;49.234;9.326;2023-01-26T01:18:52;100243.44;;;4.71;70.83
6216;BME280;3141;49.234;9.326;2023-01-26T01:19:35;100243.03;;;4.78;70.18
6216;BME280;3141;49.234;9.326;2023-01-26T01:20:17;100244.94;;;4.76;70.23
6216;BME280;3141;49.234;9.326;2023-01-26T01:21:05;100240.31;;;4.79;70.14
6216;BME280;3141;49.234;9.326;2023-01-26T01:21:47;100243.66;;;4.81;70.17
6216;BME280;3141;49.234;9.326;2023-01-26T01:22:30;100242.94;;;4.79;70.09
6216;BME280;3141;49.234;9.326;2023-01-26T01:23:12;100239.47;;;4.79;70.54
6216;BME280;3141;49.234;9.326;2023-01-26T01:23:54;100240.09;;;4.69;70.56
6216;BME280;3141;49.234;9.326;2023-01-26T01:24:36;100239.47;;;4.66;70.56
6216;BME280;3141;49.234;9.326;2023-01-26T01:25:19;100232.66;;;4.63;70.80
6216;BME280;3141;49.234;9.326;2023-01-26T01:26:02;100236.03;;;4.65;70.87
6216;BME280;3141;49.234;9.326;2023-01-26T01:26:45;100236.53;;;4.70;70.43
6216;BME280;3141;49.234;9.326;2023-01-26T01:27:27;100235.19;;;4.65;70.67
6216;BME280;3141;49.234;9.326;2023-01-26T01:28:09;100233.53;;;4.64;71.00
6216;BME280;3141;49.234;9.326;2023-01-26T01:28:53;100227.09;;;4.68;70.89
6216;BME280;3141;49.234;9.326;2023-01-26T01:29:36;100232.69;;;4.76;70.27
6216;BME280;3141;49.234;9.326;2023-01-26T01:30:19;100238.84;;;4.75;70.05
6216;BME280;3141;49.234;9.326;2023-01-26T01:31:09;100232.69;;;4.76;70.09
6216;BME280;3141;49.234;9.326;2023-01-26T01:31:52;100226.47;;;4.64;70.77
6216;BME280;3141;49.234;9.326;2023-01-26T01:32:35;100225.75;;;4.62;70.97
6216;BME280;3141;49.234;9.326;2023-01-26T01:33:17;100229.00;;;4.66;70.87
6216;BME280;3141;49.234;9.326;2023-01-26T01:33:59;100226.06;;;4.70;71.12
6216;BME280;3141;49.234;9.326;2023-01-26T01:34:42;100226.06;;;4.70;71.32
6216;BME280;3141;49.234;9.326;2023-01-26T01:35:24;100227.63;;;4.73;70.74
6216;BME280;3141;49.234;9.326;2023-01-26T01:36:10;100231.31;;;4.70;71.41
6216;BME280;3141;49.234;9.326;2023-01-26T01:36:52;100232.44;;;4.66;71.64
6216;BME280;3141;49.234;9.326;2023-01-26T01:37:35;100229.84;;;4.66;71.60
6216;BME280;3141;49.234;9.326;2023-01-26T01:38:17;100231.53;;;4.67;71.74
6216;BME280;3141;49.234;9.326;2023-01-26T01:39:00;100229.63;;;4.69;71.48
6216;BME280;3141;49.234;9.326;2023-01-26T01:39:42;100229.81;;;4.54;71.86
6216;BME280;3141;49.234;9.326;2023-01-26T01:40:24;100232.56;;;4.52;71.51
6216;BME280;3141;49.234;9.326;2023-01-26T01:41:07;100230.28;;;4.60;72.01
6216;BME280;3141;49.234;9.326;2023-01-26T01:41:49;100239.69;;;4.63;71.38
6216;BME280;3141;49.234;9.326;2023-01-26T01:42:32;100232.16;;;4.58;71.56
6216;BME280;3141;49.234;9.326;2023-01-26T01:43:14;100230.97;;;4.62;71.94
6216;BME280;3141;49.234;9.326;2023-01-26T01:44:23;100226.91;;;4.58;71.71
6216;BME280;3141;49.234;9.326;2023-01-26T01:45:45;100230.06;;;4.63;72.21
6216;BME280;3141;49.234;9.326;2023-01-26T01:46:32;100234.97;;;4.68;71.74
6216;BME280;3141;49.234;9.326;2023-01-26T01:47:22;100230.34;;;4.71;71.87
6216;BME280;3141;49.234;9.326;2023-01-26T01:48:24;100225.75;;;4.62;71.69
6216;BME280;3141;49.234;9.326;2023-01-26T01:49:16;100228.06;;;4.67;71.86
6216;BME280;3141;49.234;9.326;2023-01-26T01:49:58;100231.53;;;4.67;71.26
6216;BME280;3141;49.234;9.326;2023-01-26T01:50:45;100229.53;;;4.58;72.44
6216;BME280;3141;49.234;9.326;2023-01-26T01:51:36;100227.41;;;4.51;72.54
6216;BME280;3141;49.234;9.326;2023-01-26T01:52:26;100227.94;;;4.56;72.67
6216;BME280;3141;49.234;9.326;2023-01-26T01:53:14;100224.81;;;4.63;72.32
6216;BME280;3141;49.234;9.326;2023-01-26T01:54:04;100231.72;;;4.64;72.27
6216;BME280;3141;49.234;9.326;2023-01-26T01:54:53;100227.97;;;4.68;72.08
6216;BME280;3141;49.234;9.326;2023-01-26T01:55:37;100232.34;;;4.68;71.45
6216;BME280;3141;49.234;9.326;2023-01-26T01:56:22;100234.56;;;4.74;71.57
6216;BME280;3141;49.234;9.326;2023-01-26T01:57:08;100230.91;;;4.64;71.88
6216;BME280;3141;49.234;9.326;2023-01-26T01:57:58;100227.53;;;4.62;71.94
6216;BME280;3141;49.234;9.326;2023-01-26T01:58:42;100229.63;;;4.57;71.69
6216;BME280;3141;49.234;9.326;2023-01-26T01:59:24;100229.00;;;4.53;72.05
6216;BME280;3141;49.234;9.326;2023-01-26T02:00:08;100227.94;;;4.56;72.00
6216;BME280;3141;49.234;9.326;2023-01-26T02:00:52;100233.81;;;4.59;71.89
6216;BME280;3141;49.234;9.326;2023-01-26T02:01:34;100223.97;;;4.63;72.47
6216;BME280;3141;49.234;9.326;2023-01-26T02:02:17;100223.97;;;4.50;72.47
6216;BME280;3141;49.234;9.326;2023-01-26T02:03:05;100228.16;;;4.40;72.46
6216;BME280;3141;49.234;9.326;2023-01-26T02:04:04;100218.75;;;4.38;72.59
6216;BME280;3141;49.234;9.326;2023-01-26T02:04:48;100222.72;;;4.43;72.53
6216;BME280;3141;49.234;9.326;2023-01-26T02:05:32;100217.56;;;4.42;71.96
6216;BME280;3141;49.234;9.326;2023-01-26T02:06:30;100219.00;;;4.08;73.25
6216;BME280;3141;49.234;9.326;2023-01-26T02:07:16;100218.47;;;4.03;73.08
6216;BME280;3141;49.234;9.326;2023-01-26T02:07:59;100212.56;;;3.87;74.16
6216;BME280;3141;49.234;9.326;2023-01-26T02:08:45;100214.28;;;4.01;74.72
6216;BME280;3141;49.234;9.326;2023-01-26T02:09:32;100218.50;;;4.16;74.20
6216;BME280;3141;49.234;9.326;2023-01-26T02:10:53;100208.34;;;4.11;74.20
6216;BME280;3141;49.234;9.326;2023-01-26T02:11:40;100209.06;;;4.13;73.85
6216;BME280;3141;49.234;9.326;2023-01-26T02:12:28;100206.78;;;4.09;74.18
6216;BME280;3141;49.234;9.326;2023-01-26T02:13:11;100210.66;;;4.16;73.94
6216;BME280;3141;49.234;9.326;2023-01-26T02:13:55;100214.63;;;4.21;74.14
6216;BME280;3141;49.234;9.326;2023-01-26T02:14:39;100212.25;;;4.31;73.47
6216;BME280;3141;49.234;9.326;2023-01-26T02:15:22;100209.50;;;4.32;73.31
6216;BME280;3141;49.234;9.326;2023-01-26T02:16:05;100206.16;;;4.30;73.31
6216;BME280;3141;49.234;9.326;2023-01-26T02:16:47;100208.84;;;4.16;73.53
6216;BME280;3141;49.234;9.326;2023-01-26T02:17:29;100204.13;;;3.96;73.56
6216;BME280;3141;49.234;9.326;2023-01-26T02:18:12;100208.00;;;4.03;73.83
6216;BME280;3141;49.234;9.326;2023-01-26T02:18:54;100208.75;;;4.05;74.63
6216;BME280;3141;49.234;9.326;2023-01-26T02:19:49;100203.41;;;4.07;73.86
6216;BME280;3141;49.234;9.326;2023-01-26T02:21:23;100199.03;;;4.20;73.88
6216;BME280;3141;49.234;9.326;2023-01-26T02:21:50;100198.22;;;4.19;73.46
6216;BME280;3141;49.234;9.326;2023-01-26T02:22:43;100208.13;;;4.14;73.64
6216;BME280;3141;49.234;9.326;2023-01-26T02:24:10;100199.94;;;4.06;73.93
6216;BME280;3141;49.234;9.326;2023-01-26T02:24:48;100198.41;;;4.04;73.96
6216;BME280;3141;49.234;9.326;2023-01-26T02:26:32;100197.34;;;4.06;73.70
6216;BME280;3141;49.234;9.326;2023-01-26T02:27:14;100197.88;;;4.11;73.00
6216;BME280;3141;49.234;9.326;2023-01-26T02:27:57;100190.19;;;3.96;73.31
6216;BME280;3141;49.234;9.326;2023-01-26T02:28:40;100195.84;;;3.90;74.65
6216;BME280;3141;49.234;9.326;2023-01-26T02:29:23;100198.69;;;3.99;73.95
6216;BME280;3141;49.234;9.326;2023-01-26T02:30:06;100197.13;;;3.97;74.10
6216;BME280;3141;49.234;9.326;2023-01-26T02:30:49;100199.00;;;4.07;73.75
6216;BME280;3141;49.234;9.326;2023-01-26T02:31:32;100191.78;;;3.98;73.96
6216;BME280;3141;49.234;9.326;2023-01-26T02:32:14;100186.44;;;4.00;73.54
6216;BME280;3141;49.234;9.326;2023-01-26T02:32:57;100189.38;;;4.08;73.70
6216;BME280;3141;49.234;9.326;2023-01-26T02:33:40;100193.41;;;4.26;72.92
6216;BME280;3141;49.234;9.326;2023-01-26T02:34:23;100190.06;;;4.36;72.68
6216;BME280;3141;49.234;9.326;2023-01-26T02:35:09;100187.50;;;4.35;72.59
6216;BME280;3141;49.234;9.326;2023-01-26T02:35:52;100189.00;;;4.39;72.09
6216;BME280;3141;49.234;9.326;2023-01-26T02:36:34;100183.22;;;4.21;72.29
6216;BME280;3141;49.234;9.326;2023-01-26T02:37:16;100183.88;;;4.12;72.94
6216;BME280;3141;49.234;9.326;2023-01-26T02:37:59;100183.56;;;4.29;72.25
6216;BME280;3141;49.234;9.326;2023-01-26T02:38:43;100188.69;;;4.31;71.84
6216;BME280;3141;49.234;9.326;2023-01-26T02:39:48;100185.03;;;4.21;71.98
6216;BME280;3141;49.234;9.326;2023-01-26T02:40:37;100183.75;;;4.26;71.93
6216;BME280;3141;49.234;9.326;2023-01-26T02:41:21;100192.34;;;4.28;71.73
6216;BME280;3141;49.234;9.326;2023-01-26T02:42:23;100191.53;;;4.28;71.68
6216;BME280;3141;49.234;9.326;2023-01-26T02:43:23;100187.31;;;4.25;72.10
6216;BME280;3141;49.234;9.326;2023-01-26T02:44:09;100184.09;;;4.34;71.53
6216;BME280;3141;49.234;9.326;2023-01-26T02:44:52;100184.38;;;4.30;71.48
6216;BME280;3141;49.234;9.326;2023-01-26T02:45:34;100187.63;;;4.33;71.88
6216;BME280;3141;49.234;9.326;2023-01-26T02:46:17;100177.16;;;4.33;72.27
6216;BME280;3141;49.234;9.326;2023-01-26T02:46:59;100184.81;;;4.36;71.70
6216;BME280;3141;49.234;9.326;2023-01-26T02:47:41;100182.94;;;4.26;71.75
6216;BME280;3141;49.234;9.326;2023-01-26T02:48:25;100179.78;;;4.21;72.27
6216;BME280;3141;49.234;9.326;2023-01-26T02:49:26;100179.16;;;4.30;72.29
6216;BME280;3141;49.234;9.326;2023-01-26T02:50:28;100179.06;;;4.31;72.20
6216;BME280;3141;49.234;9.326;2023-01-26T02:51:10;100177.69;;;4.38;71.83
6216;BME280;3141;49.234;9.326;2023-01-26T02:51:52;100183.66;;;4.28;72.57
6216;BME280;3141;49.234;9.326;2023-01-26T02:52:35;100182.09;;;4.25;72.57
6216;BME280;3141;49.234;9.326;2023-01-26T02:53:18;100171.28;;;4.30;72.69
6216;BME280;3141;49.234;9.326;2023-01-26T02:54:00;100175.28;;;4.35;72.59
6216;BME280;3141;49.234;9.326;2023-01-26T02:54:43;100177.91;;;4.48;72.55
6216;BME280;3141;49.234;9.326;2023-01-26T02:55:44;100177.69;;;4.38;72.54
6216;BME280;3141;49.234;9.326;2023-01-26T02:56:26;100173.50;;;4.36;72.78
6216;BME280;3141;49.234;9.326;2023-01-26T02:57:08;100167.13;;;4.27;73.02
6216;BME280;3141;49.234;9.326;2023-01-26T02:57:58;100167.34;;;4.24;72.86
6216;BME280;3141;49.234;9.326;2023-01-26T02:58:41;100166.81;;;4.19;73.27
6216;BME280;3141;49.234;9.326;2023-01-26T02:59:23;100167.63;;;4.20;73.33
6216;BME280;3141;49.234;9.326;2023-01-26T03:00:17;100168.88;;;4.14;72.77
6216;BME280;3141;49.234;9.326;2023-01-26T03:00:59;100163.13;;;4.09;72.75
6216;BME280;3141;49.234;9.326;2023-01-26T03:01:42;100163.44;;;4.05;72.78
6216;BME280;3141;49.234;9.326;2023-01-26T03:02:24;100164.47;;;4.02;72.83
6216;BME280;3141;49.234;9.326;2023-01-26T03:03:12;100156.31;;;4.07;72.76
6216;BME280;3141;49.234;9.326;2023-01-26T03:03:55;100156.44;;;4.05;72.36
6216;BME280;3141;49.234;9.326;2023-01-26T03:04:37;100154.75;;;4.04;72.37
6216;BME280;3141;49.234;9.326;2023-01-26T03:05:20;100149.41;;;4.06;72.02
6216;BME280;3141;49.234;9.326;2023-01-26T03:06:02;100156.94;;;3.98;72.34
6216;BME280;3141;49.234;9.326;2023-01-26T03:06:44;100153.94;;;4.04;72.20
6216;BME280;3141;49.234;9.326;2023-01-26T03:07:27;100158.22;;;4.05;71.74
6216;BME280;3141;49.234;9.326;2023-01-26T03:08:09;100150.34;;;4.05;71.83
6216;BME280;3141;49.234;9.326;2023-01-26T03:08:51;100156.09;;;3.97;72.33
6216;BME280;3141;49.234;9.326;2023-01-26T03:09:34;100149.59;;;3.90;72.34
6216;BME280;3141;49.234;9.326;2023-01-26T03:10:16;100145.75;;;3.96;72.91
6216;BME280;3141;49.234;9.326;2023-01-26T03:10:59;100148.16;;;4.11;72.56
6216;BME280;3141;49.234;9.326;2023-01-26T03:11:41;100144.69;;;4.11;72.74
6216;BME280;3141;49.234;9.326;2023-01-26T03:12:24;100140.84;;;4.16;72.50
6216;BME280;3141;49.234;9.326;2023-01-26T03:13:07;100141.69;;;4.17;72.41
6216;BME280;3141;49.234;9.326;2023-01-26T03:13:49;100145.44;;;4.25;72.38
6216;BME280;3141;49.234;9.326;2023-01-26T03:14:31;100147.75;;;4.17;72.75
6216;BME280;3141;49.234;9.326;2023-01-26T03:15:14;100142.72;;;4.14;72.27
6216;BME280;3141;49.234;9.326;2023-01-26T03:16:14;100141.69;;;4.17;72.24
6216;BME280;3141;49.234;9.326;2023-01-26T03:16:59;100141.91;;;4.14;72.48
6216;BME280;3141;49.234;9.326;2023-01-26T03:17:41;100144.81;;;4.22;72.55
6216;BME280;3141;49.234;9.326;2023-01-26T03:18:24;100142.84;;;4.25;72.25
6216;BME280;3141;49.234;9.326;2023-01-26T03:19:24;100148.38;;;4.21;72.74
6216;BME280;3141;49.234;9.326;2023-01-26T03:20:25;100148.25;;;4.10;72.29
6216;BME280;3141;49.234;9.326;2023-01-26T03:21:26;100141.66;;;4.04;72.94
6216;BME280;3141;49.234;9.326;2023-01-26T03:22:27;100137.91;;;4.08;72.62
6216;BME280;3141;49.234;9.326;2023-01-26T03:23:28;100148.47;;;4.07;72.91
6216;BME280;3141;49.234;9.326;2023-01-26T03:24:29;100142.94;;;4.11;72.44
6216;BME280;3141;49.234;9.326;2023-01-26T03:25:29;100137.16;;;4.06;71.63
6216;BME280;3141;49.234;9.326;2023-01-26T03:26:30;100145.44;;;4.00;72.56
6216;BME280;3141;49.234;9.326;2023-01-26T03:27:39;100140.63;;;4.07;72.40
6216;BME280;3141;49.234;9.326;2023-01-26T03:28:21;100141.56;;;4.18;71.77
6216;BME280;3141;49.234;9.326;2023-01-26T03:29:04;100145.75;;;4.08;71.92
6216;BME280;3141;49.234;9.326;2023-01-26T03:29:46;100139.59;;;3.97;72.54
6216;BME280;3141;49.234;9.326;2023-01-26T03:30:29;100139.66;;;3.95;72.22
6216;BME280;3141;49.234;9.326;2023-01-26T03:31:11;100147.41;;;3.84;72.69
6216;BME280;3141;49.234;9.326;2023-01-26T03:31:54;100146.75;;;3.81;72.80
6216;BME280;3141;49.234;9.326;2023-01-26T03:32:36;100148.97;;;3.87;72.80
6216;BME280;3141;49.234;9.326;2023-01-26T03:33:19;100141.44;;;3.82;73.18
6216;BME280;3141;49.234;9.326;2023-01-26T03:34:01;100149.50;;;3.79;73.37
6216;BME280;3141;49.234;9.326;2023-01-26T03:34:44;100152.31;;;3.76;73.40
6216;BME280;3141;49.234;9.326;2023-01-26T03:35:26;100143.31;;;3.80;73.48
6216;BME280;3141;49.234;9.326;2023-01-26T03:36:08;100145.06;;;3.80;74.05
6216;BME280;3141;49.234;9.326;2023-01-26T03:36:51;100150.66;;;3.88;73.57
6216;BME280;3141;49.234;9.326;2023-01-26T03:37:33;100152.41;;;3.87;73.18
6216;BME280;3141;49.234;9.326;2023-01-26T03:38:17;100147.94;;;3.89;73.05
6216;BME280;3141;49.234;9.326;2023-01-26T03:39:00;100147.28;;;3.86;73.09
6216;BME280;3141;49.234;9.326;2023-01-26T03:39:42;100141.03;;;3.88;73.16
6216;BME280;3141;49.234;9.326;2023-01-26T03:40:43;100143.66;;;3.88;73.05
6216;BME280;3141;49.234;9.326;2023-01-26T03:41:44;100140.63;;;3.94;73.04
6216;BME280;3141;49.234;9.326;2023-01-26T03:42:45;100142.59;;;3.91;72.73
6216;BME280;3141;49.234;9.326;2023-01-26T03:43:46;100141.03;;;3.88;72.90
6216;BME280;3141;49.234;9.326;2023-01-26T03:44:47;100142.28;;;3.95;72.70
6216;BME280;3141;49.234;9.326;2023-01-26T03:45:47;100135.81;;;4.01;71.95
6216;BME280;3141;49.234;9.326;2023-01-26T03:46:48;100136.53;;;4.03;72.19
6216;BME280;3141;49.234;9.326;2023-01-26T03:47:49;100141.03;;;3.88;72.56
6216;BME280;3141;49.234;9.326;2023-01-26T03:48:49;100135.81;;;3.88;72.52
6216;BME280;3141;49.234;9.326;2023-01-26T03:49:50;100138.00;;;3.94;72.61
6216;BME280;3141;49.234;9.326;2023-01-26T03:50:51;100136.22;;;3.95;71.82
6216;BME280;3141;49.234;9.326;2023-01-26T03:51:51;100137.59;;;4.00;72.08
6216;BME280;3141;49.234;9.326;2023-01-26T03:52:52;100138.41;;;4.01;72.09
6216;BME280;3141;49.234;9.326;2023-01-26T03:53:53;100141.84;;;3.89;72.58
6216;BME280;3141;49.234;9.326;2023-01-26T03:54:53;100142.84;;;4.00;72.26
6216;BME280;3141;49.234;9.326;2023-01-26T03:55:54;100143.75;;;3.99;72.04
6216;BME280;3141;49.234;9.326;2023-01-26T03:56:55;100141.97;;;4.00;72.20
6216;BME280;3141;49.234;9.326;2023-01-26T03:57:37;100144.16;;;4.06;71.80
6216;BME280;3141;49.234;9.326;2023-01-26T03:58:19;100142.94;;;4.11;72.00
6216;BME280;3141;49.234;9.326;2023-01-26T03:59:04;100134.78;;;4.03;72.12
6216;BME280;3141;49.234;9.326;2023-01-26T03:59:49;100135.28;;;4.08;71.95
6216;BME280;3141;49.234;9.326;2023-01-26T04:00:32;100140.41;;;4.10;72.07
6216;BME280;3141;49.234;9.326;2023-01-26T04:01:14;100142.72;;;4.14;72.28
6216;BME280;3141;49.234;9.326;2023-01-26T04:02:06;100136.03;;;4.10;72.17
6216;BME280;3141;49.234;9.326;2023-01-26T04:03:07;100141.44;;;4.07;72.28
6216;BME280;3141;49.234;9.326;2023-01-26T04:04:09;100136.94;;;4.09;71.73
6216;BME280;3141;49.234;9.326;2023-01-26T04:05:10;100141.44;;;4.07;72.00
6216;BME280;3141;49.234;9.326;2023-01-26T04:06:11;100132.78;;;4.07;72.01
6216;BME280;3141;49.234;9.326;2023-01-26T04:07:12;100141.56;;;4.06;71.75
6216;BME280;3141;49.234;9.326;2023-01-26T04:08:13;100131.31;;;4.15;72.43
6216;BME280;3141;49.234;9.326;2023-01-26T04:09:04;100137.28;;;4.17;71.93
6216;BME280;3141;49.234;9.326;2023-01-26T04:09:47;100142.28;;;4.08;71.35
6216;BME280;3141;49.234;9.326;2023-01-26T04:10:29;100133.72;;;4.18;71.42
6216;BME280;3141;49.234;9.326;2023-01-26T04:11:12;100135.41;;;4.19;71.05
6216;BME280;3141;49.234;9.326;2023-01-26T04:11:54;100141.34;;;4.21;71.44
6216;BME280;3141;49.234;9.326;2023-01-26T04:12:37;100130.72;;;4.24;70.97
6216;BME280;3141;49.234;9.326;2023-01-26T04:13:23;100135.81;;;4.13;70.81